Time;durP1;ratioP1;P1;durP2;ratioP2;P2;SDS_P1;SDS_P2;PMS_P1;PMS_P2;Temp;Humidity;BMP_temperature;BMP_pressure;BME280_temperature;BME280_humidity;BME280_pressure;Samples;Min_cycle;Max_cycle;Signal;HPM_P1;HPM_P2
2022/05/19 00:02:19;;;;;;;3.40;2.50;;;;;;;6.94;56.12;99500.34;106288;1278;137123;-72
2022/05/19 00:04:46;;;;;;;4.70;2.20;;;;;;;6.97;56.04;99497.25;105983;1277;23245;-71
2022/05/19 00:07:14;;;;;;;4.30;2.10;;;;;;;7.00;56.50;99493.54;106021;1277;137529;-71
2022/05/19 00:09:55;;;;;;;5.20;3.00;;;;;;;7.01;56.79;99492.91;106184;1277;25304;-71
2022/05/19 00:12:22;;;;;;;6.00;2.60;;;;;;;7.03;56.77;99495.23;106001;1277;22595;-71
2022/05/19 00:14:50;;;;;;;5.60;2.00;;;;;;;7.04;56.40;99495.20;105982;1277;137107;-71
2022/05/19 00:17:17;;;;;;;6.70;2.70;;;;;;;7.06;56.39;99496.63;106886;1277;25366;-71
2022/05/19 00:19:44;;;;;;;5.40;2.20;;;;;;;7.06;56.88;99498.04;106040;1277;137403;-71
2022/05/19 00:22:14;;;;;;;4.40;2.50;;;;;;;7.07;57.11;99495.91;105985;1278;22681;-72
2022/05/19 00:24:41;;;;;;;7.40;2.90;;;;;;;7.08;57.08;99496.96;106277;1277;137733;-71
2022/05/19 00:27:09;;;;;;;6.00;2.70;;;;;;;7.07;57.04;99496.17;106303;1280;25369;-71
2022/05/19 00:29:35;;;;;;;6.00;2.50;;;;;;;7.03;57.08;99497.71;106497;1277;22553;-71
2022/05/19 00:32:03;;;;;;;6.60;2.30;;;;;;;7.01;56.84;99498.13;105940;1280;137288;-71
2022/05/19 00:34:30;;;;;;;4.50;2.50;;;;;;;7.00;56.77;99496.81;106431;1277;24337;-71
2022/05/19 00:37:01;;;;;;;5.10;2.30;;;;;;;6.98;56.78;99499.14;106129;1277;137749;-71
2022/05/19 00:39:29;;;;;;;7.00;2.60;;;;;;;6.93;56.84;99496.50;106170;1277;22709;-71
2022/05/19 00:44:37;;;;;;;5.80;2.20;;;;;;;6.85;57.23;99502.58;105882;1277;137228;-71
2022/05/19 00:47:11;;;;;;;5.60;2.30;;;;;;;6.80;57.18;99498.33;106092;1277;22621;-71
2022/05/19 00:49:42;;;;;;;3.00;2.00;;;;;;;6.74;57.18;99502.31;106220;1277;137479;-71
2022/05/19 00:52:34;;;;;;;3.70;2.40;;;;;;;6.70;57.36;99502.19;106255;1278;22549;-72
2022/05/19 00:55:07;;;;;;;9.00;1.90;;;;;;;6.66;57.12;99499.10;106036;1277;137272;-71
2022/05/19 00:57:39;;;;;;;5.10;2.10;;;;;;;6.65;56.71;99495.98;106153;1278;24353;-71
2022/05/19 01:00:11;;;;;;;4.50;2.20;;;;;;;6.68;56.67;99497.72;106248;1276;22573;-72
2022/05/19 01:02:47;;;;;;;4.60;2.10;;;;;;;6.69;56.33;99498.89;106085;1277;137243;-72
2022/05/19 01:05:31;;;;;;;4.00;1.70;;;;;;;6.69;56.33;99495.02;106431;1277;25356;-72
2022/05/19 01:08:21;;;;;;;5.20;1.90;;;;;;;6.71;57.14;99497.90;105743;1277;137609;-72
2022/05/19 01:10:48;;;;;;;3.10;1.70;;;;;;;6.72;56.82;99498.41;106354;1277;25265;-72
2022/05/19 01:13:20;;;;;;;4.40;2.00;;;;;;;6.72;56.43;99495.54;105829;1277;137053;-72
2022/05/19 01:15:52;;;;;;;4.40;2.10;;;;;;;6.72;56.40;99497.00;106040;1279;24269;-72
2022/05/19 01:18:24;;;;;;;4.10;1.90;;;;;;;6.71;56.40;99498.36;106345;1278;23485;-72
2022/05/19 01:20:52;;;;;;;4.70;2.20;;;;;;;6.70;56.42;99495.86;105786;1279;137131;-72
2022/05/19 01:23:19;;;;;;;2.60;1.70;;;;;;;6.68;56.66;99498.27;105890;1280;25326;-72
2022/05/19 01:25:51;;;;;;;5.00;2.50;;;;;;;6.65;56.66;99495.61;105919;1277;137315;-72
2022/05/19 01:28:22;;;;;;;6.40;2.10;;;;;;;6.63;56.82;99498.67;106088;1279;22563;-72
2022/05/19 01:30:49;;;;;;;6.10;2.90;;;;;;;6.61;56.80;99497.10;105970;1277;137340;-72
2022/05/19 01:33:16;;;;;;;4.70;2.10;;;;;;;6.59;56.96;99498.09;106331;1277;25653;-72
2022/05/19 01:35:42;;;;;;;3.80;2.00;;;;;;;6.57;56.83;99494.83;106312;1277;22577;-72
2022/05/19 01:38:18;;;;;;;5.60;1.80;;;;;;;6.57;56.76;99495.39;105789;1277;137301;-71
2022/05/19 01:41:15;;;;;;;3.20;1.70;;;;;;;6.56;56.51;99491.52;106208;1277;24262;-71
2022/05/19 01:44:10;;;;;;;4.30;2.10;;;;;;;6.55;56.96;99491.15;105855;1277;137275;-73
2022/05/19 01:46:39;;;;;;;3.70;2.00;;;;;;;6.54;57.57;99495.08;105842;1277;23290;-71
2022/05/19 01:49:21;;;;;;;3.30;2.20;;;;;;;6.51;57.96;99494.39;106387;1277;137278;-71
2022/05/19 01:52:17;;;;;;;5.50;2.20;;;;;;;6.49;58.70;99493.03;106263;1277;25607;-71
2022/05/19 01:54:50;;;;;;;3.20;1.90;;;;;;;6.44;59.21;99488.57;106003;1277;137449;-71
2022/05/19 01:57:36;;;;;;;4.80;2.30;;;;;;;6.37;59.16;99489.26;106141;1278;24309;-73
2022/05/19 02:00:03;;;;;;;4.60;2.20;;;;;;;6.31;59.18;99489.73;105918;1278;22650;-72
2022/05/19 02:02:53;;;;;;;5.10;1.80;;;;;;;6.24;59.25;99490.08;106206;1277;137436;-72
2022/05/19 02:05:31;;;;;;;3.80;2.30;;;;;;;6.19;59.25;99493.77;106092;1280;22550;-72
2022/05/19 02:08:01;;;;;;;4.70;2.20;;;;;;;6.14;59.96;99489.91;105825;1277;137170;-73
2022/05/19 02:10:37;;;;;;;6.00;2.10;;;;;;;6.11;60.03;99491.13;106079;1277;24313;-72
2022/05/19 02:13:05;;;;;;;5.20;2.40;;;;;;;6.06;59.70;99484.05;105922;1277;137600;-72
2022/05/19 02:15:34;;;;;;;;;;;;;;;6.04;59.51;99485.80;106352;1277;24299;-72
2022/05/19 02:18:02;;;;;;;5.00;2.20;;;;;;;6.00;60.11;99485.76;106300;1277;22547;-72
2022/05/19 02:20:31;;;;;;;6.50;2.90;;;;;;;5.97;60.29;99487.73;105949;1277;138010;-72
2022/05/19 02:23:02;;;;;;;4.40;2.30;;;;;;;5.91;60.53;99491.20;106277;1277;25497;-72
2022/05/19 02:25:42;;;;;;;5.10;2.20;;;;;;;5.84;60.75;99492.52;106196;1277;137559;-72
2022/05/19 02:28:16;;;;;;;3.60;2.50;;;;;;;5.73;60.94;99495.34;106251;1277;22553;-72
2022/05/19 02:30:44;;;;;;;8.60;2.20;;;;;;;5.51;61.51;99497.09;106235;1277;137312;-72
2022/05/19 02:33:16;;;;;;;6.20;2.30;;;;;;;5.21;62.38;99500.71;106198;1278;25402;-72
2022/05/19 02:35:44;;;;;;;4.40;2.50;;;;;;;4.91;63.23;99500.36;106154;1278;22601;-72
2022/05/19 02:38:12;;;;;;;4.90;2.90;;;;;;;4.74;64.01;99500.34;105927;1278;137679;-71
2022/05/19 02:40:40;;;;;;;3.90;2.20;;;;;;;4.69;64.45;99500.05;105809;1278;22560;-71
2022/05/19 02:43:08;;;;;;;3.90;2.10;;;;;;;4.69;64.75;99494.95;106400;1277;137785;-72
2022/05/19 02:45:36;;;;;;;5.10;2.40;;;;;;;4.70;64.95;99493.93;105976;1277;24428;-71
2022/05/19 02:48:05;;;;;;;6.80;2.50;;;;;;;4.72;65.00;99494.04;106281;1278;23150;-72
2022/05/19 02:50:48;;;;;;;5.30;2.70;;;;;;;4.76;65.00;99486.77;105735;1278;137242;-72
2022/05/19 02:53:16;;;;;;;5.60;2.30;;;;;;;4.83;64.70;99488.91;106079;1277;25258;-72
2022/05/19 02:55:44;;;;;;;7.50;2.80;;;;;;;4.88;64.78;99489.29;106099;1277;137303;-72
2022/05/19 02:58:14;;;;;;;11.50;2.70;;;;;;;4.92;64.72;99492.30;106300;1277;22547;-72
2022/05/19 03:00:44;;;;;;;5.60;2.40;;;;;;;4.95;64.74;99496.98;106419;1277;138017;-72
2022/05/19 03:03:14;;;;;;;6.10;2.10;;;;;;;4.94;64.53;99493.45;106013;1278;26494;-72
2022/05/19 03:05:42;;;;;;;13.50;3.20;;;;;;;4.93;64.50;99485.84;106495;1277;24232;-72
2022/05/19 03:08:10;;;;;;;6.70;2.60;;;;;;;4.95;64.30;99488.10;106202;1277;137246;-72
2022/05/19 03:10:39;;;;;;;7.00;2.60;;;;;;;4.99;64.11;99489.52;106274;1278;25328;-72
2022/05/19 03:13:07;;;;;;;3.60;2.40;;;;;;;5.03;64.02;99481.79;106186;1278;137947;-72
2022/05/19 03:15:34;;;;;;;5.50;2.30;;;;;;;5.08;64.04;99483.77;106065;1277;22545;-72
2022/05/19 03:18:01;;;;;;;5.30;2.00;;;;;;;5.09;64.27;99484.51;106061;1277;24269;-72
2022/05/19 03:20:28;;;;;;;5.40;2.30;;;;;;;5.09;64.09;99485.95;105905;1277;137128;-72
2022/05/19 03:22:58;;;;;;;4.50;2.20;;;;;;;5.10;63.84;99484.33;106065;1277;24242;-74
2022/05/19 03:25:25;;;;;;;5.40;2.30;;;;;;;5.13;63.63;99479.38;106096;1277;137104;-74
2022/05/19 03:27:52;;;;;;;5.50;2.30;;;;;;;5.19;63.37;99484.02;105945;1277;24401;-73
2022/05/19 03:30:20;;;;;;;10.70;2.10;;;;;;;5.26;63.19;99487.70;105854;1277;23420;-73
2022/05/19 03:32:47;;;;;;;6.00;2.30;;;;;;;5.36;63.20;99490.63;105910;1278;137311;-72
2022/05/19 03:35:15;;;;;;;12.20;3.10;;;;;;;5.45;63.10;99491.73;106132;1277;22569;-73
2022/05/19 03:37:43;;;;;;;7.00;2.60;;;;;;;5.53;62.88;99486.77;105934;1277;137467;-72
2022/05/19 03:40:13;;;;;;;6.10;2.40;;;;;;;5.61;62.59;99488.94;105973;1277;22554;-72
2022/05/19 03:42:40;;;;;;;9.50;2.50;;;;;;;5.66;62.46;99492.92;106029;1277;137959;-72
2022/05/19 03:45:07;;;;;;;6.70;2.70;;;;;;;5.71;62.59;99495.94;105748;1277;22547;-73
2022/05/19 03:47:34;;;;;;;4.00;2.10;;;;;;;5.77;62.62;99492.93;105921;1280;25381;-72
2022/05/19 03:50:01;;;;;;;6.50;2.10;;;;;;;5.81;62.51;99494.48;105665;1280;137723;-72
2022/05/19 03:52:28;;;;;;;3.80;2.20;;;;;;;5.83;62.33;99493.15;106060;1277;22715;-72
2022/05/19 03:54:56;;;;;;;3.80;2.20;;;;;;;5.88;61.95;99494.41;105708;1278;137382;-72
2022/05/19 03:57:23;;;;;;;6.20;2.20;;;;;;;5.93;61.73;99492.59;106104;1277;24203;-72
2022/05/19 03:59:50;;;;;;;3.70;2.00;;;;;;;5.97;61.69;99489.55;106143;1277;22541;-72
2022/05/19 04:02:18;;;;;;;2.60;2.00;;;;;;;6.03;61.75;99491.88;105528;1278;137504;-72
2022/05/19 04:04:45;;;;;;;3.70;2.10;;;;;;;6.08;61.46;99492.98;105849;1277;22554;-72
2022/05/19 04:07:12;;;;;;;5.80;2.10;;;;;;;6.13;61.28;99487.62;105686;1280;137207;-72
2022/05/19 04:09:39;;;;;;;3.60;1.80;;;;;;;6.17;61.16;99489.58;106055;1277;25306;-72
2022/05/19 04:12:07;;;;;;;4.10;1.90;;;;;;;6.23;60.71;99490.27;105799;1277;22993;-72
2022/05/19 04:14:34;;;;;;;5.20;1.90;;;;;;;6.28;60.97;99490.36;105791;1277;137084;-72
2022/05/19 04:17:01;;;;;;;12.70;2.40;;;;;;;6.34;61.69;99490.05;106320;1277;22542;-72
2022/05/19 04:19:28;;;;;;;13.00;3.00;;;;;;;6.38;62.26;99492.98;106001;1277;137398;-72
2022/05/19 04:21:57;;;;;;;7.90;2.40;;;;;;;6.41;62.20;99492.51;105786;1277;22535;-72
2022/05/19 04:24:25;;;;;;;;;;;;;;;6.48;61.98;99492.45;105857;1277;23750;-72
2022/05/19 04:26:52;;;;;;;4.50;1.90;;;;;;;6.53;61.82;99489.66;106528;1277;123618;-72
2022/05/19 04:29:19;;;;;;;3.60;1.80;;;;;;;6.58;61.46;99492.05;106159;1277;22566;-72
2022/05/19 04:31:46;;;;;;;8.00;2.50;;;;;;;6.65;61.55;99496.60;106180;1277;137334;-72
2022/05/19 04:34:14;;;;;;;5.60;2.50;;;;;;;6.71;63.41;99498.77;106706;1278;25261;-73
2022/05/19 04:36:40;;;;;;;7.60;2.60;;;;;;;6.73;63.92;99498.42;106168;1277;137974;-72
2022/05/19 04:39:07;;;;;;;11.00;3.20;;;;;;;6.77;64.16;99502.50;106033;1280;25238;-73
2022/05/19 04:41:37;;;;;;;7.90;3.20;;;;;;;6.85;64.14;99502.20;106398;1279;22569;-73
2022/05/19 04:44:04;;;;;;;6.60;2.80;;;;;;;6.96;64.10;99496.88;105859;1279;137551;-72
2022/05/19 04:46:31;;;;;;;7.90;2.90;;;;;;;7.07;63.40;99495.17;105764;1279;22533;-72
2022/05/19 04:49:12;;;;;;;5.40;2.50;;;;;;;7.19;63.24;99494.02;106660;1277;137379;-72
2022/05/19 04:51:39;;;;;;;5.20;2.60;;;;;;;7.30;62.44;99495.55;105919;1279;25089;-72
2022/05/19 04:54:07;;;;;;;8.60;2.80;;;;;;;7.41;61.55;99495.61;106223;1277;29491;-72
2022/05/19 04:56:50;;;;;;;4.00;2.60;;;;;;;7.53;60.12;99494.23;105951;1277;137060;-72
2022/05/19 04:59:18;;;;;;;6.20;2.90;;;;;;;7.64;59.39;99500.38;106126;1277;22755;-72
2022/05/19 05:01:47;;;;;;;5.30;2.40;;;;;;;7.75;59.68;99500.05;106250;1277;137355;-72
2022/05/19 05:04:15;;;;;;;7.30;2.70;;;;;;;7.85;59.27;99503.08;106525;1277;22542;-72
2022/05/19 05:06:42;;;;;;;6.70;2.80;;;;;;;7.94;59.57;99500.52;106219;1277;137288;-72
2022/05/19 05:09:09;;;;;;;6.20;2.90;;;;;;;8.04;59.71;99506.16;106944;1277;22624;-73
2022/05/19 05:11:39;;;;;;;5.90;3.00;;;;;;;8.14;59.40;99502.14;106512;1277;25324;-73
2022/05/19 05:14:20;;;;;;;5.50;2.60;;;;;;;8.24;58.98;99499.16;106319;1277;137198;-71
2022/05/19 05:16:53;;;;;;;5.50;2.90;;;;;;;8.33;58.38;99495.98;106857;1277;24137;-71
2022/05/19 05:19:23;;;;;;;7.10;2.50;;;;;;;8.42;58.28;99488.13;105845;1278;137559;-71
2022/05/19 05:21:52;;;;;;;5.70;2.30;;;;;;;8.49;57.31;99485.02;106447;1278;22705;-72
2022/05/19 05:24:19;;;;;;;4.20;2.20;;;;;;;8.58;56.95;99481.52;106757;1277;22550;-73
2022/05/19 05:26:46;;;;;;;4.60;2.40;;;;;;;8.66;56.87;99481.80;106640;1277;137296;-72
2022/05/19 05:29:13;;;;;;;9.20;2.50;;;;;;;8.74;56.73;99480.00;106252;1277;22544;-72
2022/05/19 05:31:41;;;;;;;6.00;2.80;;;;;;;8.84;56.81;99484.89;106019;1276;137179;-72
2022/05/19 05:34:07;;;;;;;5.10;2.50;;;;;;;8.91;56.99;99483.86;106499;1277;25324;-72
2022/05/19 05:36:34;;;;;;;4.70;2.40;;;;;;;8.99;56.46;99481.13;106541;1277;138170;-72
2022/05/19 05:39:01;;;;;;;5.90;2.20;;;;;;;9.08;56.05;99482.17;106337;1277;24430;-72
2022/05/19 05:41:28;;;;;;;3.90;2.30;;;;;;;9.16;55.29;99482.55;106231;1278;22654;-72
2022/05/19 05:43:55;;;;;;;4.50;2.00;;;;;;;9.23;55.17;99481.33;105833;1277;137803;-72
2022/05/19 05:46:22;;;;;;;4.80;2.60;;;;;;;9.32;55.07;99485.90;106143;1278;24262;-72
2022/05/19 05:48:51;;;;;;;7.00;2.60;;;;;;;9.40;54.75;99484.82;106557;1278;161258;-72
2022/05/19 05:51:18;;;;;;;5.50;2.90;;;;;;;9.48;54.58;99486.39;106172;1280;22546;-72
2022/05/19 05:53:46;;;;;;;8.60;2.80;;;;;;;9.57;54.61;99484.77;106099;1278;22538;-72
2022/05/19 05:56:16;;;;;;;7.30;2.50;;;;;;;9.67;54.58;99486.89;106174;1278;139031;-72
2022/05/19 05:58:44;;;;;;;6.10;2.60;;;;;;;9.76;54.45;99485.81;106259;1278;22547;-72
2022/05/19 06:01:16;;;;;;;8.00;2.80;;;;;;;9.85;53.91;99484.69;106609;1277;137311;-72
2022/05/19 06:03:45;;;;;;;9.40;2.90;;;;;;;9.95;53.56;99485.62;106922;1279;22572;-72
2022/05/19 06:06:12;;;;;;;6.00;2.90;;;;;;;10.03;53.75;99487.50;106534;1277;22591;-72
2022/05/19 06:08:42;;;;;;;10.40;3.20;;;;;;;10.13;53.87;99484.66;106220;1280;137650;-72
2022/05/19 06:11:09;;;;;;;9.60;3.30;;;;;;;10.23;53.76;99485.52;106257;1278;22535;-72
2022/05/19 06:13:36;;;;;;;11.10;3.10;;;;;;;10.34;53.31;99486.41;106063;1280;138025;-72
2022/05/19 06:16:04;;;;;;;8.60;2.70;;;;;;;10.46;52.91;99482.11;106567;1277;24450;-72
2022/05/19 06:18:31;;;;;;;7.60;2.80;;;;;;;10.59;52.92;99482.13;105933;1277;138104;-72
2022/05/19 06:20:59;;;;;;;13.20;3.10;;;;;;;10.71;53.06;99485.73;106394;1277;22616;-72
2022/05/19 06:23:26;;;;;;;10.70;3.20;;;;;;;10.83;53.48;99485.10;106321;1277;23552;-72
2022/05/19 06:25:53;;;;;;;14.90;3.30;;;;;;;10.95;53.11;99487.25;106176;1278;137650;-72
2022/05/19 06:28:23;;;;;;;12.60;2.70;;;;;;;11.08;52.53;99493.32;106583;1277;25479;-72
2022/05/19 06:30:50;;;;;;;13.40;2.80;;;;;;;11.20;52.61;99488.77;106066;1276;138726;-72
2022/05/19 06:33:18;;;;;;;8.20;2.60;;;;;;;11.34;51.33;99488.77;106984;1277;22681;-73
2022/05/19 06:35:45;;;;;;;7.30;3.10;;;;;;;11.48;50.22;99487.95;106171;1277;26957;-72
2022/05/19 06:38:12;;;;;;;6.70;2.30;;;;;;;11.61;50.34;99483.00;105960;1279;137381;-72
2022/05/19 06:40:40;;;;;;;8.90;2.60;;;;;;;11.74;50.04;99484.32;106283;1277;22544;-72
2022/05/19 06:43:13;;;;;;;14.60;3.40;;;;;;;11.90;49.80;99479.70;106281;1278;138372;-72
2022/05/19 06:45:45;;;;;;;5.50;2.10;;;;;;;12.06;49.36;99481.61;106445;1279;22548;-72
2022/05/19 06:48:12;;;;;;;7.40;2.30;;;;;;;12.21;48.94;99479.02;106895;1278;22720;-72
2022/05/19 06:50:39;;;;;;;9.20;2.60;;;;;;;12.34;48.75;99481.41;105776;1280;138218;-72
2022/05/19 06:53:08;;;;;;;10.80;2.80;;;;;;;12.49;48.53;99476.99;106567;1278;24290;-72
2022/05/19 06:55:37;;;;;;;9.70;2.50;;;;;;;12.64;47.97;99467.50;106068;1279;137697;-72
2022/05/19 06:58:05;;;;;;;7.80;2.80;;;;;;;12.80;47.87;99466.91;106592;1278;22541;-72
2022/05/19 07:00:34;;;;;;;11.00;2.80;;;;;;;12.97;47.12;99467.21;106243;1276;137775;-72
2022/05/19 07:03:02;;;;;;;9.80;2.80;;;;;;;13.12;47.17;99466.88;106217;1277;23673;-72
2022/05/19 07:05:33;;;;;;;9.20;3.10;;;;;;;13.27;47.42;99465.50;106337;1277;22716;-72
2022/05/19 07:07:59;;;;;;;6.50;2.80;;;;;;;13.41;47.18;99466.56;106228;1277;137514;-72
2022/05/19 07:10:29;;;;;;;7.00;2.60;;;;;;;13.55;47.67;99467.35;106297;1277;22574;-72
2022/05/19 07:12:56;;;;;;;8.30;3.10;;;;;;;13.66;47.49;99468.48;106132;1277;137762;-73
2022/05/19 07:15:24;;;;;;;6.30;2.90;;;;;;;13.81;46.54;99464.14;107846;1280;22559;-71
2022/05/19 07:17:51;;;;;;;9.50;2.70;;;;;;;13.96;45.83;99464.02;107058;1278;22538;-71
2022/05/19 07:21:00;;;;;;;10.20;3.00;;;;;;;14.12;45.78;99464.55;106136;1280;137631;-71
2022/05/19 07:23:18;;;;;;;7.40;3.00;;;;;;;14.30;45.12;99461.33;106716;1279;22554;-72
2022/05/19 07:25:47;;;;;;;7.90;2.80;;;;;;;14.45;44.80;99463.77;106503;1277;137869;-72
2022/05/19 07:28:21;;;;;;;6.70;2.90;;;;;;;14.61;44.30;99463.52;106210;1277;22515;-71
2022/05/19 07:30:54;;;;;;;10.80;2.50;;;;;;;14.79;44.13;99464.06;106271;1277;138213;-72
2022/05/19 07:33:21;;;;;;;4.50;2.00;;;;;;;14.97;43.88;99459.92;107013;1280;25370;-72
2022/05/19 07:35:50;;;;;;;5.80;2.10;;;;;;;15.15;42.75;99463.40;106608;1277;22269;-72
2022/05/19 07:38:18;;;;;;;7.80;1.80;;;;;;;15.32;42.09;99457.19;106631;1278;137680;-72
2022/05/19 07:40:46;;;;;;;4.90;1.80;;;;;;;15.49;41.99;99459.02;106974;1280;23447;-72
2022/05/19 07:45:54;;;;;;;3.60;1.80;;;;;;;15.90;41.36;99460.20;106098;1279;25358;-72
2022/05/19 07:48:22;;;;;;;5.90;1.70;;;;;;;16.09;40.42;99459.22;106568;1279;22799;-72
2022/05/19 07:50:52;;;;;;;4.30;1.30;;;;;;;16.30;40.05;99452.65;106129;1279;137505;-71
2022/05/19 07:53:33;;;;;;;5.20;1.40;;;;;;;16.52;39.25;99455.95;106636;1279;25398;-72
2022/05/19 07:56:00;;;;;;;4.00;1.50;;;;;;;16.70;38.44;99455.24;106332;1278;137425;-72
2022/05/19 07:58:29;;;;;;;2.80;1.50;;;;;;;16.88;37.69;99447.73;106585;1278;22545;-72
2022/05/19 08:00:58;;;;;;;4.40;1.40;;;;;;;17.08;38.26;99443.92;106168;1280;138412;-72
2022/05/19 08:03:26;;;;;;;8.40;1.90;;;;;;;17.30;38.08;99436.99;106478;1278;22569;-72
2022/05/19 08:05:53;;;;;;;2.70;1.40;;;;;;;17.50;37.55;99434.67;106137;1279;24318;-72
2022/05/19 08:08:20;;;;;;;2.70;1.70;;;;;;;17.70;36.67;99433.63;106341;1278;137702;-72
2022/05/19 08:10:47;;;;;;;3.10;1.20;;;;;;;17.86;36.26;99429.23;106054;1277;25433;-72
2022/05/19 08:15:57;;;;;;;1.90;1.10;;;;;;;18.23;34.69;99427.25;106378;1278;22567;-71
2022/05/19 08:18:26;;;;;;;2.20;1.30;;;;;;;18.38;33.76;99426.41;106297;1280;22627;-71
2022/05/19 08:20:57;;;;;;;3.30;1.60;;;;;;;18.52;32.95;99424.17;106589;1278;137592;-71
2022/05/19 08:23:27;;;;;;;1.80;1.30;;;;;;;18.64;33.67;99423.73;105900;1280;22559;-71
2022/05/19 08:25:55;;;;;;;6.50;1.50;;;;;;;18.80;33.43;99419.73;106320;1278;137601;-71
2022/05/19 08:28:29;;;;;;;2.70;1.50;;;;;;;18.98;33.38;99419.80;106636;1277;30380;-71
2022/05/19 08:31:02;;;;;;;3.70;1.30;;;;;;;19.15;32.80;99415.81;106578;1277;137610;-72
2022/05/19 08:33:30;;;;;;;2.90;1.60;;;;;;;19.32;32.46;99419.04;106475;1277;26071;-72
2022/05/19 08:35:57;;;;;;;4.40;1.50;;;;;;;19.48;32.39;99413.48;106542;1277;24785;-71
2022/05/19 08:38:24;;;;;;;5.00;1.50;;;;;;;19.63;31.83;99414.88;105971;1278;137991;-72
2022/05/19 08:41:07;;;;;;;6.30;1.80;;;;;;;19.76;32.25;99412.65;105943;1277;22605;-72
2022/05/19 08:43:54;;;;;;;7.70;1.70;;;;;;;19.90;32.02;99410.98;106169;1277;138093;-72
2022/05/19 08:46:30;;;;;;;2.50;1.60;;;;;;;20.05;31.73;99411.60;106188;1277;25290;-72
2022/05/19 08:49:04;;;;;;;3.90;1.90;;;;;;;20.13;31.54;99409.72;106823;1278;137727;-72
2022/05/19 08:51:40;;;;;;;3.70;1.60;;;;;;;20.27;31.74;99409.08;106120;1277;22620;-72
2022/05/19 08:54:12;;;;;;;6.00;2.00;;;;;;;20.44;31.68;99405.72;107120;1277;25241;-72
2022/05/19 08:56:47;;;;;;;5.90;2.00;;;;;;;20.54;31.27;99408.92;106244;1277;137403;-72
2022/05/19 08:59:14;;;;;;;3.10;1.80;;;;;;;20.59;31.04;99404.52;106438;1279;29742;-72
2022/05/19 09:01:49;;;;;;;3.70;1.80;;;;;;;20.73;31.35;99402.16;106199;1277;137587;-72
2022/05/19 09:04:27;;;;;;;4.90;1.80;;;;;;;20.90;31.41;99400.08;106058;1279;22555;-72
2022/05/19 09:10:18;;;;;;;5.40;1.80;;;;;;;21.31;31.59;99391.98;106070;1280;32054;-72
2022/05/19 09:12:50;;;;;;;8.30;1.60;;;;;;;21.47;29.71;99391.06;105700;1277;138536;-72
2022/05/19 09:15:17;;;;;;;6.90;1.90;;;;;;;21.47;27.53;99390.36;106510;1278;23393;-72
2022/05/19 09:17:47;;;;;;;3.30;1.80;;;;;;;21.48;28.35;99391.56;106083;1277;24811;-73
2022/05/19 09:20:22;;;;;;;4.40;2.00;;;;;;;21.56;28.46;99390.96;106989;1278;137684;-72
2022/05/19 09:22:49;;;;;;;4.70;1.80;;;;;;;21.67;28.75;99389.17;106432;1277;23457;-72
2022/05/19 09:25:21;;;;;;;4.10;1.60;;;;;;;21.82;29.04;99387.94;106351;1277;137536;-72
2022/05/19 09:27:51;;;;;;;2.70;1.30;;;;;;;22.05;28.70;99386.02;106338;1277;22556;-73
2022/05/19 09:30:41;;;;;;;5.10;1.50;;;;;;;22.30;27.23;99385.54;105953;1277;29391;-73
2022/05/19 09:33:13;;;;;;;;;;;;;;;22.53;26.68;99378.65;106671;1279;137829;-72
2022/05/19 09:35:58;;;;;;;7.60;1.40;;;;;;;22.68;26.24;99379.68;105927;1278;24086;-72
2022/05/19 09:38:39;;;;;;;1.30;1.00;;;;;;;22.87;25.85;99377.30;106191;1278;138049;-73
2022/05/19 09:41:21;;;;;;;3.00;1.00;;;;;;;23.03;25.64;99371.65;106292;1277;22541;-73
2022/05/19 09:43:58;;;;;;;4.10;1.30;;;;;;;23.22;25.30;99366.70;106786;1277;137679;-73
2022/05/19 09:46:40;;;;;;;4.70;1.50;;;;;;;23.39;25.14;99364.66;106695;1277;25272;-73
2022/05/19 09:49:26;;;;;;;4.10;1.40;;;;;;;23.54;25.09;99359.80;106583;1278;138028;-73
2022/05/19 09:51:58;;;;;;;3.40;1.00;;;;;;;23.71;24.20;99356.85;106237;1277;22537;-73
2022/05/19 09:54:25;;;;;;;6.20;1.10;;;;;;;23.76;23.52;99358.86;106288;1279;22577;-72
2022/05/19 09:57:03;;;;;;;4.70;1.40;;;;;;;23.84;23.88;99353.20;107323;1277;138166;-72
2022/05/19 09:59:40;;;;;;;1.60;1.20;;;;;;;23.96;23.31;99352.39;106414;1277;22622;-73
2022/05/19 10:02:25;;;;;;;3.60;1.20;;;;;;;24.05;23.63;99354.02;106692;1276;137528;-73
2022/05/19 10:04:56;;;;;;;2.00;1.10;;;;;;;24.14;23.27;99347.36;106640;1277;22694;-73
2022/05/19 10:07:30;;;;;;;3.20;1.50;;;;;;;24.25;22.63;99348.56;106219;1278;137704;-74
2022/05/19 10:09:58;;;;;;;3.20;1.20;;;;;;;24.26;22.26;99339.27;106960;1277;22372;-72
2022/05/19 10:12:29;;;;;;;3.00;1.10;;;;;;;24.32;22.91;99340.27;106054;1278;319643;-73
2022/05/19 10:15:00;;;;;;;3.20;1.50;;;;;;;24.46;22.61;99340.71;106158;1277;137735;-74
2022/05/19 10:17:50;;;;;;;4.90;1.20;;;;;;;24.57;22.55;99340.63;106336;1277;25607;-72
2022/05/19 10:20:19;;;;;;;2.30;1.40;;;;;;;24.69;22.42;99336.45;106217;1277;137963;-72
2022/05/19 10:23:01;;;;;;;4.30;1.50;;;;;;;24.78;22.95;99332.25;106651;1277;22608;-73
2022/05/19 10:25:28;;;;;;;3.50;2.00;;;;;;;24.90;22.87;99329.34;106760;1278;137789;-73
2022/05/19 10:31:18;;;;;;;4.20;1.50;;;;;;;25.13;22.98;99328.83;106125;1278;139012;-73
2022/05/19 10:34:00;;;;;;;4.00;1.50;;;;;;;25.22;22.20;99325.30;106231;1278;25616;-73
2022/05/19 10:36:57;;;;;;;3.60;1.40;;;;;;;25.20;22.17;99324.21;106277;1279;24309;-72
2022/05/19 10:39:56;;;;;;;4.20;2.00;;;;;;;25.14;22.15;99317.03;106214;1277;137284;-72
2022/05/19 10:42:27;;;;;;;2.20;1.40;;;;;;;25.16;22.26;99311.63;105733;1280;30599;-72
2022/05/19 10:44:54;;;;;;;2.80;1.80;;;;;;;25.14;22.64;99310.02;107055;1277;138146;-72
2022/05/19 10:47:43;;;;;;;4.90;1.70;;;;;;;25.21;22.40;99304.56;106185;1278;22566;-71
2022/05/19 10:50:13;;;;;;;2.70;1.60;;;;;;;25.30;22.73;99300.00;106144;1277;138160;-72
2022/05/19 10:53:04;;;;;;;4.70;1.40;;;;;;;25.37;21.56;99294.78;106194;1278;24269;-71
2022/05/19 10:55:43;;;;;;;8.60;1.90;;;;;;;25.38;21.22;99289.80;105958;1278;137707;-72
2022/05/19 10:58:32;;;;;;;3.80;1.40;;;;;;;25.43;21.77;99291.80;106343;1277;25371;-72
2022/05/19 11:01:24;;;;;;;6.30;1.60;;;;;;;25.51;22.47;99289.58;106328;1278;22538;-72
2022/05/19 11:04:05;;;;;;;6.00;2.20;;;;;;;25.66;22.08;99285.27;106684;1277;22536;-71
2022/05/19 11:06:59;;;;;;;5.60;1.60;;;;;;;25.74;22.02;99292.73;106129;1280;23971;-72
2022/05/19 11:09:57;;;;;;;4.90;1.80;;;;;;;25.83;21.77;99287.01;106134;1277;137426;-72
2022/05/19 11:12:58;;;;;;;3.50;1.60;;;;;;;25.95;21.39;99286.81;106062;1277;22635;-72
2022/05/19 11:15:47;;;;;;;7.30;2.10;;;;;;;26.03;21.91;99282.45;105817;1280;137588;-71
2022/05/19 11:18:23;;;;;;;3.40;2.20;;;;;;;26.22;22.31;99282.23;106323;1277;24345;-71
2022/05/19 11:20:57;;;;;;;4.00;1.50;;;;;;;26.41;22.14;99278.78;105967;1278;137763;-71
2022/05/19 11:23:30;;;;;;;6.80;1.40;;;;;;;26.51;21.42;99272.70;106401;1277;22567;-72
2022/05/19 11:26:23;;;;;;;4.60;1.60;;;;;;;26.63;21.95;99264.85;106458;1277;138525;-71
2022/05/19 11:29:09;;;;;;;8.00;1.50;;;;;;;26.74;21.79;99262.91;106731;1277;23121;-71
2022/05/19 11:31:41;;;;;;;4.00;1.40;;;;;;;26.81;20.73;99268.75;105926;1278;137679;-72
2022/05/19 11:34:23;;;;;;;2.90;1.30;;;;;;;26.91;20.41;99269.23;106938;1277;22556;-72
2022/05/19 11:36:59;;;;;;;4.30;1.30;;;;;;;27.00;20.17;99266.91;106241;1279;22595;-72
2022/05/19 11:39:42;;;;;;;3.80;1.80;;;;;;;27.08;20.26;99260.74;106161;1278;137443;-72
2022/05/19 11:42:28;;;;;;;7.00;1.30;;;;;;;27.22;20.65;99252.89;106177;1277;22542;-72
2022/05/19 11:44:56;;;;;;;3.20;1.80;;;;;;;27.37;20.46;99245.33;106082;1277;137420;-72
2022/05/19 11:56:11;;;;;;;;;;;;;;;27.49;18.92;99225.52;106467;1278;137741;-72
2022/05/19 11:58:38;;;;;;;4.40;2.00;;;;;;;27.51;18.82;99216.09;106178;1278;22700;-72
2022/05/19 12:01:32;;;;;;;2.60;1.70;;;;;;;27.63;19.86;99210.73;106885;1278;22540;-72
2022/05/19 12:04:13;;;;;;;3.40;1.70;;;;;;;27.84;20.06;99211.30;106864;1277;137381;-72
2022/05/19 12:06:59;;;;;;;2.40;1.50;;;;;;;28.01;19.69;99214.29;106334;1277;22544;-72
2022/05/19 12:09:34;;;;;;;6.10;1.70;;;;;;;28.17;18.83;99212.13;106077;1277;138288;-72
2022/05/19 12:12:27;;;;;;;2.50;1.50;;;;;;;28.21;18.97;99209.96;106529;1277;24301;-72
2022/05/19 12:15:20;;;;;;;5.00;1.40;;;;;;;28.31;18.50;99203.98;106237;1277;137594;-72